Williamson, Illinois
Current Conditions -  °F | °C
As of 5:55 PM on Sunday 21 Dec 2014 (Local Time) from K3LF Reporting Station
Overcast Overcast  
Wind Chill: 33°   Ceiling: 4000
Heat Index: 39°   Visibility: 10mi
Dew Point: 28°   Wind: 8mph
Humidity: 66%   Direction: 140°SE
Pressure: 30.03"   Gusts: NA
Location:  39.0218°N, 89.7604°W
Report Text: K3LF 212355Z AUTO 14007KT 10SM OVC040 04/M02 A3003 RMK AO2 T00371021 10041 20020
Loading
Personal Weather Stations






























Interactive Weather Map New forecast layout! Learn more

10-Day Weather Forecast

Advertisements
Track Severe Weather on mobile